Time;durP1;ratioP1;P1;durP2;ratioP2;P2;SDS_P1;SDS_P2;PMS_P1;PMS_P2;Temp;Humidity;BMP_temperature;BMP_pressure;BME280_temperature;BME280_humidity;BME280_pressure;Samples;Min_cycle;Max_cycle;Signal;HPM_P1;HPM_P2
2023/03/17 00:04:28;;;;;;;6.57;5.83;;;7.00;95.80;;;;;;10503697;28;20295;-81
2023/03/17 00:09:30;;;;;;;6.43;5.93;;;7.00;95.80;;;;;;10503616;28;20593;-81
2023/03/17 00:14:35;;;;;;;7.33;6.20;;;7.00;95.70;;;;;;10488103;28;20206;-82
2023/03/17 00:19:41;;;;;;;5.53;5.13;;;6.90;95.70;;;;;;10507664;28;20232;-81
2023/03/17 00:24:44;;;;;;;6.03;5.40;;;6.90;95.60;;;;;;10508064;28;20193;-81
2023/03/17 00:29:47;;;;;;;6.43;5.93;;;6.80;96.10;;;;;;10517571;28;20210;-81
2023/03/17 00:34:49;;;;;;;6.30;5.70;;;6.80;96.10;;;;;;10523925;28;20215;-80
2023/03/17 00:39:51;;;;;;;7.40;6.70;;;6.80;96.10;;;;;;10500877;28;20223;-80
2023/03/17 00:44:55;;;;;;;5.13;4.73;;;6.90;96.40;;;;;;10527159;28;20189;-80
2023/03/17 00:49:57;;;;;;;6.30;5.80;;;7.00;96.20;;;;;;10522091;28;20236;-80
2023/03/17 00:54:59;;;;;;;6.17;5.67;;;7.10;96.00;;;;;;10522676;28;20223;-80
2023/03/17 01:00:06;;;;;;;6.90;6.40;;;7.10;96.10;;;;;;10521082;28;20705;-80
2023/03/17 01:05:09;;;;;;;5.43;4.93;;;7.10;96.70;;;;;;10514407;28;20258;-79
2023/03/17 01:10:16;;;;;;;6.50;5.37;;;7.20;96.50;;;;;;10508708;28;20216;-80
2023/03/17 01:15:20;;;;;;;5.90;5.40;;;7.20;96.40;;;;;;10520476;28;20210;-80
2023/03/17 01:20:24;;;;;;;5.93;5.50;;;7.30;96.70;;;;;;10516632;28;20777;-80
2023/03/17 01:25:28;;;;;;;6.80;6.20;;;7.30;97.00;;;;;;10514648;28;20206;-80
2023/03/17 01:30:34;;;;;;;7.17;6.67;;;7.40;96.70;;;;;;10496550;28;20362;-80
2023/03/17 01:35:38;;;;;;;6.43;5.93;;;7.40;96.70;;;;;;10512084;28;20205;-79
2023/03/17 01:40:45;;;;;;;6.00;5.50;;;7.40;96.60;;;;;;10503936;28;20615;-78
2023/03/17 01:46:26;;;;;;;11.57;9.10;;;7.50;96.60;;;;;;10484427;28;20197;-81
2023/03/17 01:51:33;;;;;;;8.47;7.67;;;7.40;96.80;;;;;;10378262;28;20235;-81
2023/03/17 01:56:37;;;;;;;6.80;6.20;;;7.50;96.00;;;;;;10488125;28;20235;-80
2023/03/17 02:01:44;;;;;;;6.63;6.13;;;7.50;95.70;;;;;;10493928;28;20203;-79
2023/03/17 02:06:49;;;;;;;6.83;6.23;;;7.50;96.10;;;;;;10481942;28;20698;-81
2023/03/17 02:11:51;;;;;;;8.43;6.77;;;7.50;96.50;;;;;;10512145;28;20245;-80
2023/03/17 02:16:55;;;;;;;7.30;6.60;;;7.40;96.40;;;;;;10516158;28;20229;-80
2023/03/17 02:21:59;;;;;;;6.07;5.67;;;7.40;96.10;;;;;;10510121;28;20277;-80
2023/03/17 02:27:06;;;;;;;6.87;6.17;;;7.50;96.30;;;;;;10508916;28;20649;-80
2023/03/17 02:32:09;;;;;;;6.20;5.70;;;7.40;96.50;;;;;;10509386;28;20198;-80
2023/03/17 02:37:13;;;;;;;6.37;5.77;;;7.40;96.40;;;;;;10507653;28;20276;-80
2023/03/17 02:42:16;;;;;;;6.93;6.27;;;7.30;96.40;;;;;;10509201;28;20196;-80
2023/03/17 02:47:18;;;;;;;7.70;7.00;;;7.20;96.50;;;;;;10527231;22;20715;-79
2023/03/17 02:52:21;;;;;;;7.30;6.70;;;7.00;96.40;;;;;;10466407;28;20284;-80
2023/03/17 02:57:23;;;;;;;7.90;7.20;;;7.00;96.40;;;;;;10464728;28;20219;-80
2023/03/17 03:02:25;;;;;;;7.37;6.77;;;6.90;96.50;;;;;;10461148;28;20193;-78
2023/03/17 03:07:29;;;;;;;7.53;6.90;;;6.90;96.80;;;;;;10432500;28;20218;-78
2023/03/17 03:12:32;;;;;;;6.90;6.40;;;6.80;96.40;;;;;;10428681;28;20586;-79
2023/03/17 03:17:34;;;;;;;9.40;7.30;;;6.80;96.40;;;;;;10425285;28;20596;-79
2023/03/17 03:22:38;;;;;;;7.47;6.77;;;6.80;96.80;;;;;;10442989;28;20280;-79
2023/03/17 03:27:40;;;;;;;6.83;6.13;;;6.80;96.80;;;;;;10432070;28;20602;-79
2023/03/17 03:32:42;;;;;;;7.30;6.70;;;6.90;96.40;;;;;;10442189;28;20281;-79
2023/03/17 03:37:45;;;;;;;7.20;6.63;;;6.90;96.70;;;;;;10434105;28;20229;-78
2023/03/17 03:42:47;;;;;;;6.93;6.33;;;6.90;96.70;;;;;;10436852;28;20205;-78
2023/03/17 03:47:49;;;;;;;7.30;6.77;;;6.80;96.50;;;;;;10435797;28;20224;-81
2023/03/17 03:52:53;;;;;;;8.40;7.50;;;6.80;96.50;;;;;;10431030;28;20693;-81
2023/03/17 03:57:55;;;;;;;8.00;7.40;;;6.70;96.60;;;;;;10451848;28;20218;-81
2023/03/17 04:02:57;;;;;;;6.77;6.27;;;6.60;96.80;;;;;;10462095;28;20297;-81
2023/03/17 04:08:01;;;;;;;6.90;6.40;;;6.50;96.70;;;;;;10452628;28;20230;-82
2023/03/17 04:13:03;;;;;;;8.20;7.20;;;6.50;96.60;;;;;;10448006;28;20260;-81
2023/03/17 04:18:05;;;;;;;7.17;6.57;;;6.40;96.50;;;;;;10438517;28;20221;-81
2023/03/17 04:23:09;;;;;;;7.73;7.13;;;6.40;96.60;;;;;;10443285;28;20644;-81
2023/03/17 04:28:11;;;;;;;7.13;6.63;;;6.30;96.60;;;;;;10442003;28;20209;-80
2023/03/17 04:33:13;;;;;;;6.90;6.40;;;6.20;96.80;;;;;;10435943;28;20194;-80
2023/03/17 04:38:17;;;;;;;7.50;6.33;;;6.10;97.00;;;;;;10434820;28;20324;-81
2023/03/17 04:43:19;;;;;;;7.77;7.17;;;6.10;97.00;;;;;;10423228;28;20238;-82
2023/03/17 04:48:21;;;;;;;8.00;7.30;;;6.10;97.10;;;;;;10435068;28;20229;-82
2023/03/17 04:53:24;;;;;;;7.83;7.17;;;6.20;97.00;;;;;;10438202;28;20209;-81
2023/03/17 04:58:26;;;;;;;11.80;9.40;;;6.20;96.60;;;;;;10418463;28;20698;-81
2023/03/17 05:03:29;;;;;;;23.23;16.47;;;6.10;96.70;;;;;;10418647;28;20716;-81
2023/03/17 05:08:32;;;;;;;8.13;7.50;;;6.10;96.90;;;;;;10440041;28;20216;-81
2023/03/17 05:13:34;;;;;;;8.70;7.90;;;6.10;96.70;;;;;;10438655;28;20594;-81
2023/03/17 05:18:37;;;;;;;8.30;7.43;;;6.00;96.70;;;;;;10452353;28;20755;-81
2023/03/17 05:23:40;;;;;;;7.37;6.80;;;5.90;97.00;;;;;;10440546;28;20193;-81
2023/03/17 05:28:42;;;;;;;8.33;7.63;;;6.00;97.00;;;;;;10409639;28;20212;-81
2023/03/17 05:33:47;;;;;;;9.50;8.60;;;5.90;97.00;;;;;;10433368;28;20201;-81
2023/03/17 05:38:53;;;;;;;7.40;6.80;;;5.90;97.10;;;;;;10440080;28;20219;-82
2023/03/17 05:43:56;;;;;;;15.80;13.40;;;5.90;97.20;;;;;;10455385;28;20192;-82
2023/03/17 05:48:58;;;;;;;15.90;11.93;;;5.90;97.30;;;;;;10438810;28;20223;-80
2023/03/17 05:54:01;;;;;;;14.60;13.30;;;5.90;97.40;;;;;;10445391;28;20685;-81
2023/03/17 05:59:04;;;;;;;7.50;6.80;;;5.90;97.30;;;;;;10432139;28;20681;-79
2023/03/17 06:04:08;;;;;;;6.67;6.17;;;5.90;97.30;;;;;;10489160;28;20224;-81
2023/03/17 06:09:11;;;;;;;7.63;7.03;;;6.00;97.00;;;;;;10452272;28;20308;-79
2023/03/17 06:14:13;;;;;;;9.80;7.70;;;6.00;97.50;;;;;;10429926;28;20197;-78
2023/03/17 06:19:15;;;;;;;8.47;6.37;;;6.10;97.20;;;;;;10435853;28;20226;-81
2023/03/17 06:24:18;;;;;;;6.80;6.30;;;6.20;97.20;;;;;;10464211;28;20213;-80
2023/03/17 06:29:21;;;;;;;7.57;6.97;;;6.20;97.10;;;;;;10463236;28;20209;-81
2023/03/17 06:34:24;;;;;;;6.73;6.13;;;6.30;97.10;;;;;;10458774;28;20202;-80
2023/03/17 06:39:27;;;;;;;7.40;6.80;;;6.30;97.10;;;;;;10447964;28;20741;-81
2023/03/17 06:44:30;;;;;;;6.33;5.60;;;6.40;96.80;;;;;;10430510;28;20199;-80
2023/03/17 06:49:32;;;;;;;7.50;6.80;;;6.50;97.20;;;;;;10444663;28;20222;-81
2023/03/17 06:54:36;;;;;;;7.43;6.73;;;6.50;97.30;;;;;;10430658;28;20218;-81
2023/03/17 06:59:39;;;;;;;7.07;6.37;;;6.70;97.20;;;;;;10436988;28;20253;-80
2023/03/17 07:04:41;;;;;;;7.50;6.43;;;6.80;97.30;;;;;;10453609;28;20194;-80
2023/03/17 07:09:45;;;;;;;8.60;7.73;;;7.00;97.40;;;;;;10435904;28;20215;-82
2023/03/17 07:14:47;;;;;;;7.00;6.40;;;7.10;97.20;;;;;;10415435;28;20203;-80
2023/03/17 07:19:51;;;;;;;6.00;5.50;;;7.40;96.70;;;;;;10429348;28;20221;-80
2023/03/17 07:24:54;;;;;;;7.00;6.40;;;7.50;97.10;;;;;;10458728;28;20197;-82
2023/03/17 07:29:56;;;;;;;6.70;6.10;;;7.70;97.30;;;;;;10416458;28;20689;-82
2023/03/17 07:34:58;;;;;;;6.57;6.00;;;7.90;97.40;;;;;;10462549;28;20233;-82
2023/03/17 07:40:02;;;;;;;6.30;5.80;;;8.10;97.40;;;;;;10452910;28;20677;-83
2023/03/17 07:45:06;;;;;;;6.50;5.90;;;8.20;97.00;;;;;;10432123;28;20202;-82
2023/03/17 07:50:09;;;;;;;9.00;7.30;;;8.40;97.40;;;;;;10452803;28;20254;-80
2023/03/17 07:55:13;;;;;;;11.00;9.97;;;8.60;97.20;;;;;;10424608;28;20571;-83
2023/03/17 08:00:16;;;;;;;15.53;11.60;;;8.70;96.60;;;;;;10455408;28;20727;-83
2023/03/17 08:05:18;;;;;;;28.67;19.53;;;8.80;97.10;;;;;;10439573;28;20191;-80
2023/03/17 08:10:22;;;;;;;23.20;15.97;;;9.00;97.10;;;;;;10466284;28;20244;-81
2023/03/17 08:15:24;;;;;;;23.87;15.87;;;9.10;97.00;;;;;;10454589;28;20197;-81
2023/03/17 08:20:26;;;;;;;13.37;11.37;;;9.30;97.50;;;;;;10431150;28;20225;-79
2023/03/17 08:25:30;;;;;;;10.90;9.90;;;9.50;97.70;;;;;;10448503;28;20194;-79
2023/03/17 08:30:33;;;;;;;9.77;8.17;;;9.70;97.40;;;;;;10418521;28;20247;-79
2023/03/17 08:35:35;;;;;;;10.87;9.87;;;9.90;97.40;;;;;;10423644;28;20276;-79
2023/03/17 08:40:40;;;;;;;8.40;7.23;;;10.00;96.90;;;;;;10469956;28;20224;-80
2023/03/17 08:45:42;;;;;;;9.00;8.20;;;10.20;96.30;;;;;;10427640;28;20254;-81
2023/03/17 08:50:44;;;;;;;9.03;7.90;;;10.30;95.90;;;;;;10473127;28;20233;-83
2023/03/17 08:55:48;;;;;;;9.00;8.23;;;10.40;96.40;;;;;;10423003;28;20260;-80
2023/03/17 09:00:51;;;;;;;10.00;8.30;;;10.50;97.20;;;;;;10450256;28;20210;-81
2023/03/17 09:05:53;;;;;;;9.83;8.83;;;10.60;97.60;;;;;;10457487;28;20198;-81
2023/03/17 09:10:57;;;;;;;10.50;8.40;;;10.60;97.50;;;;;;10421791;28;20583;-80
2023/03/17 09:16:00;;;;;;;9.00;8.00;;;10.70;97.40;;;;;;10454016;28;20252;-80
2023/03/17 09:21:02;;;;;;;10.07;7.57;;;10.90;97.50;;;;;;10443160;28;20221;-79
2023/03/17 09:26:06;;;;;;;7.50;6.70;;;11.10;97.00;;;;;;10429603;28;20402;-80
2023/03/17 09:31:10;;;;;;;6.50;5.90;;;11.30;95.90;;;;;;10462496;28;20289;-80
2023/03/17 09:36:12;;;;;;;11.73;5.00;;;11.50;95.40;;;;;;10427319;28;20255;-79
2023/03/17 09:41:45;;;;;;;8.87;8.17;;;11.60;94.10;;;;;;10459813;28;20705;-81
2023/03/17 09:46:56;;;;;;;7.80;6.67;;;11.80;95.10;;;;;;10398929;28;20190;-81
2023/03/17 09:52:00;;;;;;;6.30;5.73;;;12.00;93.90;;;;;;10456954;28;20324;-81
2023/03/17 09:57:15;;;;;;;7.20;6.57;;;12.20;95.20;;;;;;10434310;28;20218;-81
2023/03/17 10:02:23;;;;;;;6.43;5.70;;;12.40;94.70;;;;;;10451194;28;20194;-81
2023/03/17 10:07:32;;;;;;;8.17;7.37;;;12.70;94.00;;;;;;10468712;28;20206;-80
2023/03/17 10:12:46;;;;;;;5.37;4.40;;;12.90;92.90;;;;;;10446435;28;20320;-80
2023/03/17 10:17:52;;;;;;;9.37;5.47;;;13.10;92.00;;;;;;10468206;28;20725;-80
2023/03/17 10:22:57;;;;;;;7.80;6.20;;;13.10;91.70;;;;;;10438962;28;20209;-80
2023/03/17 10:28:03;;;;;;;5.70;5.20;;;13.10;91.90;;;;;;10433465;28;20234;-80
2023/03/17 10:33:06;;;;;;;4.60;4.20;;;13.20;92.60;;;;;;10456607;28;20255;-80
2023/03/17 10:38:16;;;;;;;5.70;4.30;;;13.30;93.20;;;;;;10436865;28;20230;-80
2023/03/17 10:43:21;;;;;;;5.77;4.90;;;13.40;93.90;;;;;;10440003;28;20206;-82
2023/03/17 10:48:23;;;;;;;10.00;5.73;;;13.50;94.20;;;;;;10422714;28;20233;-80
2023/03/17 10:53:27;;;;;;;8.10;5.13;;;13.70;93.60;;;;;;10452459;28;20205;-80
2023/03/17 10:58:38;;;;;;;5.13;4.63;;;13.80;93.20;;;;;;10432203;28;20226;-81
2023/03/17 11:03:40;;;;;;;10.30;5.20;;;13.90;93.00;;;;;;10438732;28;20256;-82
2023/03/17 11:08:48;;;;;;;4.97;4.50;;;13.90;93.00;;;;;;10455425;28;20210;-82
2023/03/17 11:14:00;;;;;;;6.57;4.60;;;13.80;93.10;;;;;;10427076;28;20276;-82
2023/03/17 11:19:05;;;;;;;5.40;4.90;;;13.70;94.10;;;;;;10458697;28;20320;-82
2023/03/17 11:24:12;;;;;;;5.67;4.80;;;13.70;93.60;;;;;;10443824;28;20239;-82
2023/03/17 11:29:22;;;;;;;5.30;4.83;;;13.70;94.30;;;;;;10459545;28;20209;-81
2023/03/17 11:34:42;;;;;;;5.00;4.57;;;13.80;94.50;;;;;;10453733;28;20194;-80
2023/03/17 11:39:50;;;;;;;4.27;4.00;;;13.90;94.10;;;;;;10458575;28;20228;-80
2023/03/17 11:45:15;;;;;;;4.03;3.70;;;14.00;94.20;;;;;;10454354;28;20593;-81
2023/03/17 11:50:25;;;;;;;4.03;3.73;;;14.20;89.80;;;;;;10447742;28;20328;-81
2023/03/17 11:55:36;;;;;;;3.07;2.77;;;14.60;85.50;;;;;;10446419;28;20201;-80
2023/03/17 12:00:44;;;;;;;3.37;2.73;;;14.90;89.50;;;;;;10461213;28;20321;-81
2023/03/17 12:05:53;;;;;;;2.90;2.80;;;15.20;83.60;;;;;;10456587;28;20262;-80
2023/03/17 12:10:59;;;;;;;4.23;3.20;;;15.50;83.10;;;;;;10459697;28;20217;-80
2023/03/17 12:16:09;;;;;;;4.43;3.90;;;15.50;87.10;;;;;;10473047;28;20206;-81
2023/03/17 12:21:17;;;;;;;3.40;3.20;;;15.40;90.30;;;;;;10443611;28;20219;-81
2023/03/17 12:26:23;;;;;;;5.43;3.87;;;15.30;90.60;;;;;;10449339;28;20297;-81
2023/03/17 12:31:31;;;;;;;4.10;3.80;;;15.20;91.10;;;;;;10449296;28;20214;-81
2023/03/17 12:36:35;;;;;;;5.40;3.20;;;15.20;90.80;;;;;;10460795;28;20206;-80
2023/03/17 12:41:58;;;;;;;3.40;3.10;;;15.20;90.20;;;;;;10472359;28;20209;-80
2023/03/17 12:47:41;;;;;;;3.70;2.90;;;15.20;91.20;;;;;;10442566;28;20312;-79
2023/03/17 12:53:09;;;;;;;4.03;3.60;;;15.10;91.70;;;;;;10440023;28;20202;-81
2023/03/17 12:58:25;;;;;;;3.50;3.20;;;15.10;92.40;;;;;;10431862;28;20222;-80
2023/03/17 13:03:31;;;;;;;3.13;2.93;;;15.00;91.70;;;;;;10459097;28;20204;-80
2023/03/17 13:08:36;;;;;;;2.87;2.67;;;15.10;92.10;;;;;;10422020;28;20746;-80
2023/03/17 13:13:46;;;;;;;3.03;2.80;;;15.20;90.00;;;;;;10440035;28;20252;-80
2023/03/17 13:18:52;;;;;;;2.73;2.57;;;15.30;88.10;;;;;;10457962;28;20225;-80
2023/03/17 13:23:57;;;;;;;2.50;2.40;;;15.60;76.20;;;;;;10429895;28;20198;-80
2023/03/17 13:29:22;;;;;;;4.80;2.80;;;16.00;74.70;;;;;;10444670;28;20252;-84
2023/03/17 13:34:28;;;;;;;2.50;2.30;;;16.40;72.80;;;;;;10430881;28;20220;-84
2023/03/17 13:39:59;;;;;;;2.80;2.60;;;16.90;71.30;;;;;;10434646;28;20222;-84
2023/03/17 13:45:21;;;;;;;2.87;2.77;;;16.90;73.00;;;;;;10441743;28;20216;-82
2023/03/17 13:50:31;;;;;;;3.10;2.70;;;16.80;80.40;;;;;;10430821;28;20256;-81
2023/03/17 13:55:39;;;;;;;3.27;3.07;;;16.60;72.80;;;;;;10435014;28;20186;-80
2023/03/17 14:00:44;;;;;;;3.60;3.30;;;16.50;82.50;;;;;;10456483;28;20219;-80
2023/03/17 14:05:50;;;;;;;2.73;2.20;;;16.30;75.10;;;;;;10423723;28;20202;-80
2023/03/17 14:10:54;;;;;;;7.40;2.20;;;16.30;74.20;;;;;;10464527;28;20217;-80
2023/03/17 14:16:02;;;;;;;7.43;2.93;;;16.30;70.80;;;;;;10444009;28;20272;-80
2023/03/17 14:21:18;;;;;;;3.10;2.90;;;16.30;81.60;;;;;;10463039;28;20257;-80
2023/03/17 14:26:23;;;;;;;2.80;2.60;;;16.10;85.40;;;;;;10432245;28;20189;-80
2023/03/17 14:31:27;;;;;;;3.97;3.27;;;15.90;86.10;;;;;;10456052;28;20210;-80
2023/03/17 14:36:33;;;;;;;4.03;3.63;;;15.70;85.30;;;;;;10462257;28;20285;-82
2023/03/17 14:41:37;;;;;;;4.67;4.23;;;15.70;71.60;;;;;;10434668;28;20225;-80
2023/03/17 14:46:40;;;;;;;3.77;2.47;;;15.90;74.50;;;;;;10413774;28;20195;-80
2023/03/17 14:51:43;;;;;;;2.70;2.60;;;16.00;76.90;;;;;;10439899;28;20259;-79
2023/03/17 14:56:49;;;;;;;3.83;3.47;;;15.90;82.50;;;;;;10452446;28;20196;-81
2023/03/17 15:01:55;;;;;;;4.97;3.33;;;15.80;85.50;;;;;;10425534;28;20202;-78
2023/03/17 15:07:00;;;;;;;2.97;2.77;;;15.60;86.30;;;;;;10454720;28;20329;-79
2023/03/17 15:12:06;;;;;;;2.67;2.57;;;15.40;88.20;;;;;;10452460;28;20240;-79
2023/03/17 15:17:17;;;;;;;2.60;2.40;;;15.20;87.90;;;;;;10425108;28;20218;-80
2023/03/17 15:22:25;;;;;;;3.23;3.03;;;15.30;71.90;;;;;;10450770;28;20204;-78
2023/03/17 15:27:28;;;;;;;6.33;3.13;;;15.60;76.60;;;;;;10450581;28;20561;-79
2023/03/17 15:32:31;;;;;;;2.40;2.30;;;15.80;83.50;;;;;;10426305;28;20209;-79
2023/03/17 15:37:35;;;;;;;5.53;3.43;;;15.60;87.60;;;;;;10455052;28;20225;-80
2023/03/17 15:42:39;;;;;;;2.47;2.23;;;15.40;88.30;;;;;;10454945;28;20202;-80
2023/03/17 15:47:43;;;;;;;2.70;2.50;;;15.20;90.40;;;;;;10450752;28;20222;-78
2023/03/17 15:52:47;;;;;;;2.77;2.53;;;14.90;91.20;;;;;;10405555;28;20198;-80
2023/03/17 15:57:49;;;;;;;5.97;3.40;;;14.80;91.50;;;;;;10446538;28;20214;-80
2023/03/17 16:02:53;;;;;;;4.53;2.40;;;14.60;91.40;;;;;;10451521;28;20662;-80
2023/03/17 16:07:57;;;;;;;2.70;2.50;;;14.70;90.70;;;;;;10404434;28;20212;-80
2023/03/17 16:12:59;;;;;;;3.37;2.90;;;14.90;90.30;;;;;;10459797;28;20313;-81
2023/03/17 16:18:06;;;;;;;4.77;2.80;;;15.10;90.20;;;;;;10449534;28;20215;-79
2023/03/17 16:23:14;;;;;;;2.73;2.40;;;15.30;90.00;;;;;;10412532;28;20199;-81
2023/03/17 16:28:18;;;;;;;3.87;2.80;;;15.40;90.30;;;;;;10404549;28;20268;-79
2023/03/17 16:33:22;;;;;;;4.33;2.70;;;15.50;89.90;;;;;;10424896;28;20624;-82
2023/03/17 16:38:27;;;;;;;3.10;2.83;;;15.50;90.20;;;;;;10442532;28;20217;-81
2023/03/17 16:43:32;;;;;;;3.87;2.90;;;15.50;90.30;;;;;;10428875;28;20198;-79
2023/03/17 16:48:34;;;;;;;5.30;2.87;;;15.50;89.50;;;;;;10444511;28;20230;-80
2023/03/17 16:53:39;;;;;;;4.73;2.80;;;15.50;89.00;;;;;;10418851;28;20285;-79
2023/03/17 16:58:41;;;;;;;3.77;2.97;;;15.50;88.90;;;;;;10419542;28;20234;-81
2023/03/17 17:03:44;;;;;;;3.77;3.20;;;15.50;88.60;;;;;;10434853;28;20214;-83
2023/03/17 17:08:48;;;;;;;4.63;3.23;;;15.50;88.70;;;;;;10424759;28;20289;-81
2023/03/17 17:13:50;;;;;;;3.27;2.97;;;15.40;88.90;;;;;;10439625;28;20206;-84
2023/03/17 17:18:54;;;;;;;3.20;3.00;;;15.30;89.00;;;;;;10454551;28;20250;-84
2023/03/17 17:23:58;;;;;;;3.37;3.07;;;15.30;88.10;;;;;;10442981;28;20182;-82
2023/03/17 17:29:00;;;;;;;4.93;3.27;;;15.20;88.90;;;;;;10426943;28;20249;-82
2023/03/17 17:34:02;;;;;;;8.53;5.07;;;15.00;89.00;;;;;;10419658;28;20198;-82
2023/03/17 17:39:06;;;;;;;62.37;34.47;;;15.00;89.20;;;;;;10425093;28;20222;-82
2023/03/17 17:44:08;;;;;;;33.03;21.40;;;15.00;89.70;;;;;;10430769;28;20194;-82
2023/03/17 17:49:11;;;;;;;5.63;4.73;;;14.90;89.60;;;;;;10439715;28;20610;-82
2023/03/17 17:54:15;;;;;;;10.67;5.50;;;14.80;89.70;;;;;;10424122;28;20208;-82
2023/03/17 17:59:17;;;;;;;5.13;4.30;;;14.70;90.00;;;;;;10434751;28;20214;-82
2023/03/17 18:04:19;;;;;;;5.80;5.30;;;14.60;90.30;;;;;;10431627;28;20256;-82
2023/03/17 18:09:23;;;;;;;9.13;5.83;;;14.50;90.30;;;;;;10433471;28;20245;-82
2023/03/17 18:14:26;;;;;;;6.80;5.70;;;14.40;90.50;;;;;;10440909;28;20762;-81
2023/03/17 18:19:28;;;;;;;56.83;38.53;;;14.40;90.50;;;;;;10443823;28;20233;-82
2023/03/17 18:24:32;;;;;;;54.43;34.90;;;14.30;90.60;;;;;;10452904;28;20212;-81
2023/03/17 18:29:35;;;;;;;30.60;20.57;;;14.10;90.70;;;;;;10441223;28;20231;-79
2023/03/17 18:34:42;;;;;;;32.97;24.37;;;14.10;90.90;;;;;;10443297;28;20198;-81
2023/03/17 18:39:45;;;;;;;37.83;28.40;;;14.00;91.10;;;;;;10418515;28;20314;-80
2023/03/17 18:44:50;;;;;;;41.00;31.37;;;13.90;91.20;;;;;;10451430;28;20200;-80
2023/03/17 18:49:52;;;;;;;11.93;10.50;;;13.80;91.20;;;;;;10400520;28;20299;-81
2023/03/17 18:54:55;;;;;;;33.10;26.50;;;13.90;91.00;;;;;;10458203;28;20198;-80
2023/03/17 18:59:58;;;;;;;43.40;28.67;;;13.80;90.90;;;;;;10422893;28;20229;-81
2023/03/17 19:05:02;;;;;;;9.60;8.67;;;13.80;90.90;;;;;;10418512;28;20191;-81
2023/03/17 19:10:08;;;;;;;6.67;6.07;;;13.80;90.30;;;;;;10408918;28;20214;-80
2023/03/17 19:15:12;;;;;;;6.00;5.40;;;13.80;90.10;;;;;;10393029;28;20198;-83
2023/03/17 19:20:14;;;;;;;9.47;8.60;;;13.80;89.00;;;;;;10417316;28;20226;-80
2023/03/17 19:25:18;;;;;;;6.70;4.60;;;13.80;88.00;;;;;;10453301;28;20212;-82
2023/03/17 19:30:20;;;;;;;5.03;4.63;;;13.90;87.30;;;;;;10459724;28;20304;-79
2023/03/17 19:35:22;;;;;;;8.00;5.10;;;13.90;87.60;;;;;;10413368;28;20202;-79
2023/03/17 19:40:25;;;;;;;5.57;4.87;;;14.00;86.90;;;;;;10410612;28;20262;-83
2023/03/17 19:45:28;;;;;;;7.00;5.57;;;14.00;86.80;;;;;;10423089;28;20194;-82
2023/03/17 19:50:31;;;;;;;5.23;4.80;;;14.00;87.20;;;;;;10420897;28;20233;-82
2023/03/17 19:55:34;;;;;;;5.50;4.87;;;14.00;86.80;;;;;;10451572;28;20199;-84
2023/03/17 20:00:44;;;;;;;5.20;4.70;;;14.00;88.00;;;;;;10427719;28;20269;-81
2023/03/17 20:05:46;;;;;;;4.67;4.27;;;13.90;87.70;;;;;;10405729;28;20658;-80
2023/03/17 20:10:54;;;;;;;5.07;4.60;;;13.80;88.60;;;;;;10430392;28;20217;-81
2023/03/17 20:15:57;;;;;;;5.17;4.63;;;13.70;89.60;;;;;;10414053;28;20199;-79
2023/03/17 20:21:00;;;;;;;4.67;4.27;;;13.60;89.20;;;;;;10450379;28;20225;-79
2023/03/17 20:26:09;;;;;;;4.40;4.00;;;13.50;89.70;;;;;;10457668;28;20220;-80
2023/03/17 20:31:12;;;;;;;4.30;4.00;;;13.40;89.70;;;;;;10456798;28;20218;-82
2023/03/17 20:36:14;;;;;;;4.43;4.03;;;13.40;90.40;;;;;;10460091;28;20214;-80
2023/03/17 20:41:21;;;;;;;4.37;3.97;;;13.40;90.30;;;;;;10461884;28;20250;-80
2023/03/17 20:46:25;;;;;;;6.10;3.73;;;13.30;90.90;;;;;;10447889;28;20220;-82
2023/03/17 20:51:29;;;;;;;3.83;3.50;;;13.20;91.00;;;;;;10484167;22;20260;-78
2023/03/17 20:56:33;;;;;;;5.83;4.20;;;13.20;91.10;;;;;;10451857;28;20233;-78
2023/03/17 21:01:37;;;;;;;4.80;4.40;;;13.20;91.10;;;;;;10435589;28;20221;-78
2023/03/17 21:06:40;;;;;;;7.70;3.83;;;13.20;90.70;;;;;;10452419;28;20205;-78
2023/03/17 21:11:44;;;;;;;6.20;4.93;;;13.10;91.20;;;;;;10452001;28;20241;-78
2023/03/17 21:16:46;;;;;;;4.50;4.17;;;13.10;90.40;;;;;;10452873;28;20205;-78
2023/03/17 21:21:48;;;;;;;5.10;4.30;;;13.10;90.60;;;;;;10472376;28;20230;-78
2023/03/17 21:26:52;;;;;;;6.93;6.40;;;13.10;90.70;;;;;;10464324;28;20217;-78
2023/03/17 21:31:55;;;;;;;8.10;7.20;;;13.10;91.10;;;;;;10478957;28;20227;-78
2023/03/17 21:36:58;;;;;;;44.57;31.93;;;13.00;91.20;;;;;;10477960;28;20194;-78
2023/03/17 21:42:02;;;;;;;40.60;28.90;;;13.10;91.10;;;;;;10474781;28;20561;-78
2023/03/17 21:47:04;;;;;;;8.57;6.17;;;13.00;91.30;;;;;;10473462;28;20198;-78
2023/03/17 21:52:07;;;;;;;7.80;6.27;;;13.00;91.40;;;;;;10465044;28;20595;-80
2023/03/17 21:57:12;;;;;;;4.17;3.77;;;13.00;91.60;;;;;;10466838;28;20206;-78
2023/03/17 22:02:16;;;;;;;4.10;3.53;;;12.90;91.50;;;;;;10461756;28;20638;-78
2023/03/17 22:07:18;;;;;;;11.07;8.07;;;12.90;91.90;;;;;;10460966;28;20209;-78
2023/03/17 22:12:22;;;;;;;4.93;3.93;;;12.80;92.00;;;;;;10443890;28;20309;-78
2023/03/17 22:17:26;;;;;;;5.23;3.57;;;12.80;91.90;;;;;;10471963;28;20202;-77
2023/03/17 22:22:29;;;;;;;3.90;3.60;;;12.70;92.20;;;;;;10489445;28;20253;-78
2023/03/17 22:27:32;;;;;;;8.10;7.40;;;12.70;92.10;;;;;;10464953;28;20206;-78
2023/03/17 22:32:34;;;;;;;7.80;4.70;;;12.60;92.30;;;;;;10459677;28;20583;-80
2023/03/17 22:37:36;;;;;;;3.87;3.47;;;12.50;92.20;;;;;;10465846;28;20193;-79
2023/03/17 22:42:40;;;;;;;6.10;5.60;;;12.50;92.00;;;;;;10445531;28;20283;-79
2023/03/17 22:47:42;;;;;;;6.80;5.30;;;12.50;92.30;;;;;;10461973;28;20228;-78
2023/03/17 22:52:44;;;;;;;6.20;4.30;;;12.50;92.10;;;;;;10442576;28;20225;-78
2023/03/17 22:57:48;;;;;;;5.47;4.97;;;12.40;92.30;;;;;;10457604;28;20201;-80
2023/03/17 23:02:50;;;;;;;3.43;3.13;;;12.40;91.20;;;;;;10457301;28;20527;-78
2023/03/17 23:07:52;;;;;;;4.00;3.60;;;12.40;90.30;;;;;;10442078;28;20202;-78
2023/03/17 23:12:55;;;;;;;5.80;3.20;;;12.50;90.00;;;;;;10449629;28;20677;-78
2023/03/17 23:17:58;;;;;;;2.97;2.67;;;12.50;89.50;;;;;;10458877;28;20228;-78
2023/03/17 23:23:00;;;;;;;3.10;2.33;;;12.50;89.00;;;;;;10460313;28;20324;-78
2023/03/17 23:28:04;;;;;;;2.57;2.37;;;12.50;89.30;;;;;;10458435;28;20201;-78
2023/03/17 23:33:06;;;;;;;3.40;2.50;;;12.50;89.80;;;;;;10459469;28;20277;-78
2023/03/17 23:38:08;;;;;;;2.70;2.50;;;12.50;88.70;;;;;;10441490;28;20614;-78
2023/03/17 23:43:12;;;;;;;3.20;2.90;;;12.40;88.60;;;;;;10457772;28;20231;-78
2023/03/17 23:48:14;;;;;;;2.43;2.17;;;12.40;88.90;;;;;;10456194;28;20244;-78
2023/03/17 23:53:16;;;;;;;2.53;2.33;;;12.30;88.80;;;;;;10452099;28;20716;-78
2023/03/17 23:58:20;;;;;;;3.20;2.47;;;12.30;88.60;;;;;;10452509;28;20213;-78
